Time;durP1;ratioP1;P1;durP2;ratioP2;P2;SDS_P1;SDS_P2;PMS_P1;PMS_P2;Temp;Humidity;BMP_temperature;BMP_pressure;BME280_temperature;BME280_humidity;BME280_pressure;Samples;Min_cycle;Max_cycle;Signal;HPM_P1;HPM_P2
2021/06/09 00:00:50;;;;;;;33.97;26.67;;;18.40;99.90;;;;;;5054311;28;20009;-87
2021/06/09 00:03:15;;;;;;;34.33;26.63;;;18.40;99.90;;;;;;5054136;28;20021;-87
2021/06/09 00:05:41;;;;;;;30.88;26.13;;;18.30;99.90;;;;;;5054087;28;20031;-87
2021/06/09 00:08:07;;;;;;;35.35;28.40;;;18.40;99.90;;;;;;5053383;28;20025;-87
2021/06/09 00:10:33;;;;;;;36.65;28.88;;;18.30;99.90;;;;;;5054117;28;20390;-87
2021/06/09 00:12:59;;;;;;;35.10;30.13;;;18.30;99.90;;;;;;5053537;28;20029;-87
2021/06/09 00:15:25;;;;;;;40.63;32.10;;;18.30;99.90;;;;;;5054252;28;20473;-88
2021/06/09 00:17:51;;;;;;;38.25;32.38;;;18.30;99.90;;;;;;5054124;28;20116;-88
2021/06/09 00:20:20;;;;;;;45.92;34.08;;;18.30;99.90;;;;;;5053764;28;20116;-88
2021/06/09 00:22:49;;;;;;;46.67;33.88;;;18.20;99.90;;;;;;5054161;28;20017;-88
2021/06/09 00:25:17;;;;;;;42.88;34.60;;;18.10;99.90;;;;;;5054790;28;20379;-88
2021/06/09 00:27:48;;;;;;;44.10;37.15;;;18.10;99.90;;;;;;5053908;28;20036;-88
2021/06/09 00:30:17;;;;;;;46.85;38.95;;;18.10;99.90;;;;;;5053581;28;20025;-88
2021/06/09 00:32:44;;;;;;;48.55;39.17;;;18.10;99.90;;;;;;5054880;28;20029;-88
2021/06/09 00:35:10;;;;;;;47.53;39.35;;;18.00;99.90;;;;;;5053540;28;20027;-88
2021/06/09 00:37:36;;;;;;;48.30;40.80;;;18.00;99.90;;;;;;5054916;28;20074;-88
2021/06/09 00:40:04;;;;;;;55.10;40.50;;;17.90;99.90;;;;;;5054009;28;20033;-88
2021/06/09 00:42:30;;;;;;;51.15;41.25;;;17.80;99.90;;;;;;5053437;28;20025;-88
2021/06/09 00:44:55;;;;;;;51.22;39.95;;;17.80;99.90;;;;;;5053521;28;20015;-88
2021/06/09 00:47:23;;;;;;;48.90;41.15;;;17.90;99.90;;;;;;5054334;28;20124;-89
2021/06/09 00:49:49;;;;;;;52.10;42.28;;;17.80;99.90;;;;;;5055605;28;20024;-89
2021/06/09 00:52:15;;;;;;;53.42;41.45;;;17.80;99.90;;;;;;5054733;28;20426;-88
2021/06/09 00:54:41;;;;;;;51.03;41.33;;;17.70;99.90;;;;;;5053210;28;20029;-88
2021/06/09 00:57:08;;;;;;;54.05;42.75;;;17.70;99.90;;;;;;5052608;28;20377;-88
2021/06/09 00:59:36;;;;;;;54.05;43.05;;;17.70;99.90;;;;;;5053285;28;20022;-88
2021/06/09 01:02:03;;;;;;;55.63;44.83;;;17.70;99.90;;;;;;5053389;28;20504;-88
2021/06/09 01:04:28;;;;;;;56.40;44.13;;;17.70;99.90;;;;;;5053280;28;20037;-88
2021/06/09 01:06:54;;;;;;;56.53;46.20;;;17.60;99.90;;;;;;5053207;28;20032;-88
2021/06/09 01:09:20;;;;;;;54.72;43.35;;;17.60;99.90;;;;;;5053306;28;20774;-88
2021/06/09 01:11:46;;;;;;;59.95;43.92;;;17.50;99.90;;;;;;5052888;28;20106;-88
2021/06/09 01:14:12;;;;;;;55.03;45.33;;;17.40;99.90;;;;;;5052727;28;20068;-88
2021/06/09 01:16:40;;;;;;;55.92;44.65;;;17.40;99.90;;;;;;5053106;28;20048;-88
2021/06/09 01:19:06;;;;;;;58.65;45.92;;;17.40;99.90;;;;;;5053007;28;20025;-88
2021/06/09 01:21:33;;;;;;;63.63;47.92;;;17.30;99.90;;;;;;5053267;28;20380;-88
2021/06/09 01:24:00;;;;;;;60.83;48.50;;;17.30;99.90;;;;;;5053160;28;20021;-89
2021/06/09 01:26:27;;;;;;;61.22;48.33;;;17.30;99.90;;;;;;5052991;28;20032;-89
2021/06/09 01:28:56;;;;;;;64.75;46.88;;;17.30;99.90;;;;;;5053107;28;20024;-89
2021/06/09 01:31:23;;;;;;;61.28;46.33;;;17.30;99.90;;;;;;5053111;28;20064;-89
2021/06/09 01:33:50;;;;;;;60.50;47.88;;;17.20;99.90;;;;;;5052419;28;20079;-89
2021/06/09 01:36:16;;;;;;;62.30;49.15;;;17.10;99.90;;;;;;5053295;28;20428;-88
2021/06/09 01:38:41;;;;;;;61.85;49.35;;;17.00;99.90;;;;;;5052398;28;20029;-89
2021/06/09 01:41:07;;;;;;;61.13;49.03;;;17.00;99.90;;;;;;5052948;28;20163;-89
2021/06/09 01:43:33;;;;;;;60.70;48.45;;;17.00;99.90;;;;;;5052929;28;20018;-89
2021/06/09 01:46:01;;;;;;;64.57;49.90;;;17.00;99.90;;;;;;5054188;28;20017;-88
2021/06/09 01:48:27;;;;;;;61.97;49.28;;;17.00;99.90;;;;;;5052936;28;20029;-88
2021/06/09 01:50:53;;;;;;;66.30;50.65;;;17.00;99.90;;;;;;5055200;28;20035;-88
2021/06/09 01:53:19;;;;;;;65.63;50.80;;;17.00;99.90;;;;;;5056683;28;20025;-88
2021/06/09 01:55:44;;;;;;;67.30;51.42;;;17.00;99.90;;;;;;5056741;28;20051;-89
2021/06/09 01:58:13;;;;;;;63.28;50.28;;;17.00;99.90;;;;;;5056723;28;20466;-88
2021/06/09 02:00:45;;;;;;;62.50;50.53;;;17.00;99.90;;;;;;5056464;28;20056;-87
2021/06/09 02:03:16;;;;;;;68.78;52.17;;;16.90;99.90;;;;;;5056709;28;20094;-89
2021/06/09 02:05:43;;;;;;;71.97;52.10;;;16.90;99.90;;;;;;5056367;28;20503;-88
2021/06/09 02:08:11;;;;;;;72.07;53.83;;;16.90;99.90;;;;;;5057724;28;20027;-89
2021/06/09 02:10:38;;;;;;;67.43;53.33;;;16.90;99.90;;;;;;5056344;28;20086;-89
2021/06/09 02:13:10;;;;;;;70.88;53.15;;;16.90;99.90;;;;;;5056301;28;20096;-86
2021/06/09 02:15:37;;;;;;;72.97;54.42;;;16.80;99.90;;;;;;5056462;28;20116;-88
2021/06/09 02:18:13;;;;;;;69.25;51.67;;;16.80;99.90;;;;;;5056261;28;20032;-88
2021/06/09 02:20:50;;;;;;;72.30;53.53;;;16.80;99.90;;;;;;5056312;28;20056;-88
2021/06/09 02:23:20;;;;;;;71.53;54.25;;;16.80;99.90;;;;;;5056368;28;20025;-89
2021/06/09 02:25:49;;;;;;;71.57;54.92;;;16.70;99.90;;;;;;5055250;28;20060;-88
2021/06/09 02:28:14;;;;;;;67.72;53.75;;;16.70;99.90;;;;;;5055431;28;20029;-88
2021/06/09 02:30:41;;;;;;;75.65;57.00;;;16.70;99.90;;;;;;5055922;28;20025;-88
2021/06/09 02:33:07;;;;;;;73.95;56.00;;;16.70;99.90;;;;;;5055570;28;20036;-88
2021/06/09 02:35:38;;;;;;;74.97;55.92;;;16.70;99.90;;;;;;5056083;28;20033;-88
2021/06/09 02:38:04;;;;;;;74.20;58.30;;;16.70;99.90;;;;;;5057226;28;20493;-89
2021/06/09 02:40:34;;;;;;;80.20;59.50;;;16.70;99.90;;;;;;5055808;28;20470;-89
2021/06/09 02:43:00;;;;;;;78.28;58.78;;;16.60;99.90;;;;;;5055598;28;20063;-88
2021/06/09 02:45:26;;;;;;;80.53;61.00;;;16.60;99.90;;;;;;5055844;28;20397;-89
2021/06/09 02:48:01;;;;;;;79.03;60.38;;;16.70;99.90;;;;;;5055898;28;20052;-89
2021/06/09 02:50:26;;;;;;;82.10;61.60;;;16.60;99.90;;;;;;5055930;28;20040;-88
2021/06/09 02:53:08;;;;;;;84.45;60.78;;;16.70;99.90;;;;;;5056027;28;20029;-88
2021/06/09 02:55:52;;;;;;;80.40;61.00;;;16.70;99.90;;;;;;5055581;28;20116;-88
2021/06/09 02:58:43;;;;;;;79.82;59.70;;;16.60;99.90;;;;;;5055820;28;20021;-88
2021/06/09 03:01:33;;;;;;;75.50;58.50;;;16.50;99.90;;;;;;5055727;28;20047;-88
2021/06/09 03:04:22;;;;;;;82.07;61.88;;;16.50;99.90;;;;;;5054629;28;20931;-89
2021/06/09 03:06:54;;;;;;;81.13;62.95;;;16.50;99.90;;;;;;5055290;28;20017;-89
2021/06/09 03:09:32;;;;;;;82.82;61.10;;;16.40;99.90;;;;;;5055372;28;20155;-89
2021/06/09 03:12:09;;;;;;;83.57;62.38;;;16.30;99.90;;;;;;5055119;28;20482;-89
2021/06/09 03:17:27;;;;;;;85.75;63.78;;;16.20;99.90;;;;;;5056179;28;20108;-89
2021/06/09 03:20:17;;;;;;;83.18;63.20;;;16.20;99.90;;;;;;5054488;28;20524;-89
2021/06/09 03:23:27;;;;;;;89.20;64.50;;;16.20;99.90;;;;;;5054590;28;20036;-89
2021/06/09 03:26:31;;;;;;;80.95;63.22;;;16.20;99.90;;;;;;5044683;28;20044;-87
2021/06/09 03:29:49;;;;;;;90.85;66.00;;;16.20;99.90;;;;;;5056283;28;20025;-87
2021/06/09 03:32:27;;;;;;;85.15;66.25;;;16.20;99.90;;;;;;5024399;28;20040;-86
2021/06/09 03:35:11;;;;;;;90.95;67.50;;;16.20;99.90;;;;;;5056980;28;20037;-88
2021/06/09 03:37:40;;;;;;;86.53;65.82;;;16.20;99.90;;;;;;5055746;28;20021;-86
2021/06/09 03:40:15;;;;;;;89.35;67.82;;;16.20;99.90;;;;;;5054714;28;20052;-87
2021/06/09 03:42:46;;;;;;;89.25;68.15;;;16.20;99.90;;;;;;5054868;28;20029;-86
2021/06/09 03:45:13;;;;;;;93.20;68.32;;;16.20;99.90;;;;;;5054884;28;20551;-87
2021/06/09 03:47:40;;;;;;;94.00;68.55;;;16.20;99.90;;;;;;5055788;28;20363;-87
2021/06/09 03:50:07;;;;;;;95.30;69.80;;;16.10;99.90;;;;;;5054436;28;20021;-87
2021/06/09 03:52:36;;;;;;;90.50;67.30;;;16.10;99.90;;;;;;5054388;28;20075;-86
2021/06/09 03:55:04;;;;;;;89.82;68.80;;;16.10;99.90;;;;;;5054520;28;20020;-87
2021/06/09 03:57:32;;;;;;;91.88;69.90;;;16.00;99.90;;;;;;5054105;28;20021;-87
2021/06/09 04:00:18;;;;;;;96.57;71.57;;;16.10;99.90;;;;;;5054577;28;20021;-87
2021/06/09 04:02:46;;;;;;;95.55;69.47;;;16.10;99.90;;;;;;5052337;28;20370;-87
2021/06/09 04:05:12;;;;;;;93.07;69.05;;;16.10;99.90;;;;;;5054117;28;20472;-87
2021/06/09 04:07:38;;;;;;;91.88;69.68;;;16.10;99.90;;;;;;5054064;28;20495;-87
2021/06/09 04:10:05;;;;;;;96.30;71.68;;;16.10;99.90;;;;;;5054224;28;20032;-88
2021/06/09 04:12:34;;;;;;;93.43;70.97;;;16.10;99.90;;;;;;5054115;28;20009;-87
2021/06/09 04:15:02;;;;;;;99.18;71.47;;;16.20;99.90;;;;;;5054261;28;20473;-87
2021/06/09 04:17:30;;;;;;;104.03;74.82;;;16.10;99.90;;;;;;5054269;28;20021;-88
2021/06/09 04:20:01;;;;;;;100.88;74.72;;;16.20;99.90;;;;;;5053357;28;20021;-87
2021/06/09 04:22:27;;;;;;;99.60;71.63;;;16.30;99.90;;;;;;5053980;28;20098;-88
2021/06/09 04:24:53;;;;;;;98.88;76.88;;;16.30;99.90;;;;;;5053722;28;20057;-88
2021/06/09 04:27:27;;;;;;;100.50;75.13;;;16.30;99.90;;;;;;5053541;28;20099;-88
2021/06/09 04:29:54;;;;;;;99.97;74.50;;;16.40;99.90;;;;;;5053878;28;20029;-88
2021/06/09 04:32:20;;;;;;;97.88;73.57;;;16.30;99.90;;;;;;5054124;28;20022;-88
2021/06/09 04:34:55;;;;;;;98.72;73.85;;;16.30;99.90;;;;;;5053813;28;20029;-88
2021/06/09 04:37:23;;;;;;;102.35;73.70;;;16.30;99.90;;;;;;5053916;28;20048;-88
2021/06/09 04:39:49;;;;;;;97.82;74.05;;;16.30;99.90;;;;;;5053570;28;20017;-87
2021/06/09 04:42:17;;;;;;;99.80;73.68;;;16.40;99.90;;;;;;5053953;28;20477;-88
2021/06/09 04:44:43;;;;;;;96.78;72.95;;;16.40;99.90;;;;;;5053760;28;20116;-88
2021/06/09 04:47:12;;;;;;;99.93;74.75;;;16.50;99.90;;;;;;5053854;28;20032;-88
2021/06/09 04:49:43;;;;;;;103.07;74.50;;;16.40;99.90;;;;;;5053616;28;20029;-88
2021/06/09 04:52:11;;;;;;;98.88;74.25;;;16.40;99.90;;;;;;5053519;28;20020;-88
2021/06/09 04:54:37;;;;;;;102.60;74.97;;;16.50;99.90;;;;;;5053855;28;20367;-88
2021/06/09 04:57:04;;;;;;;109.38;76.53;;;16.60;99.90;;;;;;5053520;28;20032;-88
2021/06/09 04:59:30;;;;;;;99.40;74.07;;;16.70;99.90;;;;;;5054832;28;20021;-82
2021/06/09 05:01:56;;;;;;;99.10;75.47;;;16.90;99.90;;;;;;5055399;28;20120;-82
2021/06/09 05:04:22;;;;;;;99.18;74.80;;;17.00;99.90;;;;;;5055373;28;20052;-82
2021/06/09 05:06:48;;;;;;;93.38;71.95;;;16.80;99.90;;;;;;5055269;28;20025;-82
2021/06/09 05:09:13;;;;;;;95.70;71.10;;;16.80;99.90;;;;;;5054380;28;20021;-82
2021/06/09 05:11:50;;;;;;;92.20;69.13;;;16.80;99.90;;;;;;5055014;28;20049;-82
2021/06/09 05:14:34;;;;;;;90.25;67.38;;;16.80;99.90;;;;;;5055298;28;20031;-82
2021/06/09 05:17:01;;;;;;;89.68;66.97;;;17.00;99.90;;;;;;5053916;28;20021;-82
2021/06/09 05:19:30;;;;;;;89.82;66.35;;;17.10;99.90;;;;;;5054971;28;20032;-82
2021/06/09 05:22:05;;;;;;;87.28;65.65;;;17.10;99.90;;;;;;5054061;28;20338;-82
2021/06/09 05:24:34;;;;;;;84.22;62.97;;;17.20;99.90;;;;;;5054370;28;20045;-82
2021/06/09 05:27:01;;;;;;;77.72;59.50;;;17.20;99.90;;;;;;5057594;28;20021;-82
2021/06/09 05:29:28;;;;;;;70.15;54.67;;;17.20;99.90;;;;;;5060181;28;20055;-82
2021/06/09 05:31:55;;;;;;;74.72;55.10;;;17.20;99.90;;;;;;5058827;28;20025;-82
2021/06/09 05:34:22;;;;;;;73.78;54.90;;;17.20;99.90;;;;;;5060403;28;20075;-82
2021/06/09 05:36:49;;;;;;;70.18;52.75;;;17.30;99.90;;;;;;5058861;28;20045;-82
2021/06/09 05:39:16;;;;;;;72.15;52.60;;;17.50;99.90;;;;;;5061563;28;20037;-82
2021/06/09 05:41:44;;;;;;;65.15;50.85;;;17.60;99.90;;;;;;5067378;28;20040;-82
2021/06/09 05:44:14;;;;;;;62.83;48.95;;;17.60;99.90;;;;;;5077188;28;20024;-82
2021/06/09 05:46:40;;;;;;;58.13;45.35;;;17.70;99.90;;;;;;5078546;28;20115;-82
2021/06/09 05:49:05;;;;;;;56.50;42.65;;;17.80;99.90;;;;;;5070862;28;20056;-82
2021/06/09 05:51:31;;;;;;;55.08;42.92;;;17.80;99.90;;;;;;5063773;28;20056;-82
2021/06/09 05:53:57;;;;;;;49.75;40.15;;;17.80;99.90;;;;;;5079353;28;20485;-82
2021/06/09 05:56:23;;;;;;;49.05;38.85;;;17.90;99.90;;;;;;5076188;28;20032;-81
2021/06/09 05:58:48;;;;;;;47.80;35.58;;;18.00;99.90;;;;;;5072874;28;20508;-82
2021/06/09 06:01:14;;;;;;;48.17;34.45;;;17.90;99.90;;;;;;5073636;28;20028;-81
2021/06/09 06:03:42;;;;;;;51.97;34.00;;;18.10;99.90;;;;;;5071647;28;20035;-82
2021/06/09 06:06:10;;;;;;;45.17;32.13;;;18.20;99.90;;;;;;5075496;28;20047;-82
2021/06/09 06:08:38;;;;;;;44.17;31.38;;;18.20;99.90;;;;;;5056765;28;20031;-81
2021/06/09 06:11:06;;;;;;;47.08;30.52;;;18.40;99.90;;;;;;5075047;28;20574;-81
2021/06/09 06:13:34;;;;;;;39.55;26.80;;;18.60;99.90;;;;;;5068236;28;20455;-81
2021/06/09 06:16:00;;;;;;;32.15;24.95;;;18.70;99.90;;;;;;5076726;28;20025;-83
2021/06/09 06:18:37;;;;;;;35.88;22.70;;;18.70;99.90;;;;;;5067699;28;21361;-81
2021/06/09 06:21:04;;;;;;;40.00;22.38;;;18.80;99.90;;;;;;5062647;28;20025;-80
2021/06/09 06:23:30;;;;;;;34.17;22.30;;;19.00;99.90;;;;;;5056330;28;20093;-82
2021/06/09 06:25:58;;;;;;;30.67;21.02;;;19.10;99.90;;;;;;5072609;28;20131;-83
2021/06/09 06:28:25;;;;;;;34.20;20.95;;;19.30;99.90;;;;;;5061412;28;20875;-82
2021/06/09 06:30:52;;;;;;;29.60;19.15;;;19.50;99.90;;;;;;5072557;28;20029;-82
2021/06/09 06:33:22;;;;;;;29.73;20.33;;;19.80;99.90;;;;;;5061713;28;20428;-85
2021/06/09 06:35:49;;;;;;;29.45;19.38;;;19.90;99.90;;;;;;5047085;28;20450;-85
2021/06/09 06:38:15;;;;;;;21.60;18.30;;;20.00;99.90;;;;;;5063628;28;20032;-88
2021/06/09 06:40:42;;;;;;;25.33;18.13;;;20.30;99.90;;;;;;5059718;28;20484;-86
2021/06/09 06:43:08;;;;;;;21.55;15.95;;;21.40;99.90;;;;;;5061592;28;20031;-85
2021/06/09 06:45:39;;;;;;;22.63;15.75;;;21.80;99.90;;;;;;5058594;28;20572;-86
2021/06/09 06:48:20;;;;;;;18.73;14.60;;;22.50;99.90;;;;;;5062988;28;20110;-86
2021/06/09 06:50:46;;;;;;;18.97;14.63;;;22.90;99.90;;;;;;5059563;28;20552;-86
2021/06/09 06:53:12;;;;;;;17.50;13.52;;;22.80;99.90;;;;;;5066470;28;20279;-87
2021/06/09 06:55:38;;;;;;;14.85;13.32;;;22.50;99.90;;;;;;5065181;28;20032;-86
2021/06/09 06:58:04;;;;;;;14.65;12.27;;;22.80;99.90;;;;;;5059985;28;20025;-86
2021/06/09 07:00:32;;;;;;;14.43;12.30;;;23.00;99.90;;;;;;5059306;28;20028;-86
2021/06/09 07:03:01;;;;;;;12.98;11.20;;;23.30;99.30;;;;;;5070100;28;20028;-86
2021/06/09 07:05:29;;;;;;;12.77;11.07;;;23.40;98.80;;;;;;5061199;28;20020;-86
2021/06/09 07:08:00;;;;;;;12.93;11.52;;;23.70;98.30;;;;;;5066891;28;20034;-86
2021/06/09 07:10:27;;;;;;;16.00;10.80;;;24.20;97.20;;;;;;5072567;28;20024;-84
2021/06/09 07:12:55;;;;;;;13.95;10.25;;;24.40;96.00;;;;;;5074566;28;20036;-86
2021/06/09 07:15:21;;;;;;;12.35;9.55;;;24.70;95.10;;;;;;5074651;28;20713;-86
2021/06/09 07:17:49;;;;;;;11.80;9.45;;;24.60;94.70;;;;;;5053697;28;20029;-86
2021/06/09 07:20:18;;;;;;;9.88;8.40;;;24.90;94.40;;;;;;5064747;28;20033;-86
2021/06/09 07:22:45;;;;;;;8.35;7.55;;;25.40;93.10;;;;;;5070212;28;20028;-87
2021/06/09 07:25:12;;;;;;;10.40;9.07;;;25.40;92.20;;;;;;5065943;28;20076;-82
2021/06/09 07:27:42;;;;;;;9.80;8.63;;;25.50;91.80;;;;;;5065634;28;20074;-82
2021/06/09 07:30:10;;;;;;;9.00;8.00;;;26.10;90.40;;;;;;5073859;28;20492;-81
2021/06/09 07:32:44;;;;;;;10.05;7.53;;;26.30;88.70;;;;;;5066455;28;20063;-81
2021/06/09 07:35:12;;;;;;;8.23;7.40;;;26.70;87.20;;;;;;5073619;28;20094;-80
2021/06/09 07:37:54;;;;;;;9.20;8.15;;;27.00;83.70;;;;;;5064286;28;20025;-81
2021/06/09 07:40:27;;;;;;;9.30;7.88;;;26.70;83.60;;;;;;5070572;28;20099;-81
2021/06/09 07:43:09;;;;;;;9.85;8.95;;;26.50;84.10;;;;;;5065316;28;20512;-80
2021/06/09 07:45:36;;;;;;;9.00;8.15;;;27.00;82.60;;;;;;5054182;28;20032;-81
2021/06/09 07:48:03;;;;;;;10.18;9.18;;;26.80;82.60;;;;;;5050334;28;20032;-80
2021/06/09 07:50:33;;;;;;;8.95;8.05;;;27.40;80.40;;;;;;5053404;28;20574;-80
2021/06/09 07:53:09;;;;;;;11.93;8.73;;;27.80;77.00;;;;;;5061630;28;20062;-82
2021/06/09 07:55:37;;;;;;;9.32;8.43;;;28.10;76.20;;;;;;5062597;28;20106;-81
2021/06/09 07:58:04;;;;;;;9.93;8.93;;;27.70;75.40;;;;;;5056630;28;20021;-82
2021/06/09 08:00:31;;;;;;;10.07;8.50;;;27.60;77.00;;;;;;5053013;28;20052;-81
2021/06/09 08:02:57;;;;;;;9.73;8.70;;;27.70;74.10;;;;;;5063038;28;20059;-80
2021/06/09 08:05:27;;;;;;;9.20;8.30;;;28.40;71.10;;;;;;5069817;28;20064;-80
2021/06/09 08:07:53;;;;;;;9.65;8.05;;;27.80;73.00;;;;;;5066055;28;20036;-80
2021/06/09 08:10:20;;;;;;;11.27;8.82;;;27.80;72.20;;;;;;5068095;28;20085;-80
2021/06/09 08:12:53;;;;;;;18.85;8.18;;;28.00;71.30;;;;;;5071381;28;20071;-81
2021/06/09 08:15:19;;;;;;;16.95;9.50;;;29.00;68.70;;;;;;5067426;28;20044;-81
2021/06/09 08:17:45;;;;;;;15.48;8.50;;;29.50;67.30;;;;;;5061267;28;20025;-82
2021/06/09 08:20:14;;;;;;;16.90;8.80;;;30.70;65.60;;;;;;5071261;28;20024;-82
2021/06/09 08:22:43;;;;;;;23.58;9.10;;;30.70;61.30;;;;;;5070060;28;20031;-81
2021/06/09 08:25:09;;;;;;;22.92;9.10;;;30.50;61.30;;;;;;5075993;28;20419;-81
2021/06/09 08:27:36;;;;;;;15.43;7.90;;;31.00;59.60;;;;;;5054149;28;20025;-81
2021/06/09 08:30:04;;;;;;;12.90;8.52;;;31.10;57.90;;;;;;5068351;28;20032;-80
2021/06/09 08:32:29;;;;;;;11.02;8.25;;;30.60;58.40;;;;;;5053874;28;20037;-81
2021/06/09 08:34:55;;;;;;;12.15;9.15;;;29.70;60.00;;;;;;5058416;28;20056;-80
2021/06/09 08:37:20;;;;;;;9.82;8.80;;;29.30;60.50;;;;;;5061358;28;20024;-80
2021/06/09 08:39:46;;;;;;;9.93;8.48;;;28.90;61.20;;;;;;5060445;28;20477;-80
2021/06/09 08:42:13;;;;;;;10.25;9.18;;;29.30;61.80;;;;;;5072999;28;20024;-81
2021/06/09 08:44:41;;;;;;;9.57;8.30;;;29.50;59.90;;;;;;5059932;28;20047;-81
2021/06/09 08:47:11;;;;;;;11.48;8.40;;;29.50;60.10;;;;;;5064694;28;20073;-79
2021/06/09 08:49:39;;;;;;;11.63;8.50;;;29.20;61.00;;;;;;5068551;28;20024;-79
2021/06/09 08:52:07;;;;;;;11.35;9.02;;;29.20;61.10;;;;;;5067785;28;20078;-80
2021/06/09 08:54:33;;;;;;;11.35;8.93;;;30.10;59.90;;;;;;5069385;28;20032;-80
2021/06/09 08:56:59;;;;;;;10.32;8.90;;;30.40;58.90;;;;;;5058006;28;20094;-80
2021/06/09 08:59:25;;;;;;;11.32;9.75;;;30.10;59.90;;;;;;5060532;28;20105;-80
2021/06/09 09:01:51;;;;;;;10.38;9.18;;;30.20;58.60;;;;;;5060192;28;20175;-79
2021/06/09 09:04:16;;;;;;;10.20;8.30;;;30.70;57.80;;;;;;5084077;28;20032;-81
2021/06/09 09:06:42;;;;;;;9.65;8.65;;;31.10;57.80;;;;;;5072981;28;20374;-81
2021/06/09 09:09:08;;;;;;;10.75;8.98;;;31.20;56.60;;;;;;5061925;28;20070;-79
2021/06/09 09:11:34;;;;;;;10.18;9.18;;;31.00;56.70;;;;;;5073324;28;20044;-81
2021/06/09 09:14:00;;;;;;;12.98;8.55;;;30.20;56.10;;;;;;5068085;28;20507;-80
2021/06/09 09:16:25;;;;;;;9.60;7.40;;;30.00;57.70;;;;;;5073097;28;20029;-80
2021/06/09 09:21:52;;;;;;;8.38;7.32;;;29.90;57.50;;;;;;5073005;28;20059;-81
2021/06/09 09:24:18;;;;;;;10.00;7.28;;;30.30;56.80;;;;;;5062027;28;20082;-80
2021/06/09 09:26:50;;;;;;;11.93;7.35;;;30.20;56.20;;;;;;5072258;28;20024;-81
2021/06/09 09:29:20;;;;;;;10.05;7.18;;;29.80;57.20;;;;;;5073802;28;20071;-80
2021/06/09 09:31:59;;;;;;;9.45;6.80;;;29.80;57.10;;;;;;5074200;28;20526;-81
2021/06/09 09:34:30;;;;;;;10.25;7.38;;;30.10;56.30;;;;;;5069977;28;20490;-81
2021/06/09 09:37:14;;;;;;;7.93;6.88;;;30.00;56.30;;;;;;5068438;28;20047;-80
2021/06/09 09:39:44;;;;;;;10.88;7.55;;;29.60;57.70;;;;;;5073003;28;20060;-81
2021/06/09 09:42:20;;;;;;;11.02;9.00;;;29.60;57.20;;;;;;5074101;28;20111;-81
2021/06/09 09:44:47;;;;;;;8.10;7.38;;;29.10;57.20;;;;;;5074964;28;20455;-80
2021/06/09 09:47:23;;;;;;;12.05;8.38;;;29.30;58.80;;;;;;5075208;28;20021;-81
2021/06/09 09:49:50;;;;;;;11.23;8.45;;;30.00;57.60;;;;;;5071113;28;20436;-80
2021/06/09 09:52:18;;;;;;;10.27;8.23;;;30.80;57.00;;;;;;5064760;28;20408;-81
2021/06/09 09:54:45;;;;;;;10.68;8.48;;;31.70;55.60;;;;;;5051238;28;20021;-82
2021/06/09 09:57:13;;;;;;;10.25;7.85;;;31.90;55.20;;;;;;5057390;28;20028;-80
2021/06/09 09:59:40;;;;;;;12.05;10.43;;;32.10;55.50;;;;;;5065709;28;20840;-81
2021/06/09 10:02:17;;;;;;;9.77;8.77;;;31.40;55.70;;;;;;5070073;28;20012;-80
2021/06/09 10:04:51;;;;;;;10.45;9.05;;;31.00;56.50;;;;;;5061050;28;20782;-79
2021/06/09 10:07:18;;;;;;;14.20;8.65;;;31.30;56.40;;;;;;5063733;28;20029;-80
2021/06/09 10:09:44;;;;;;;10.73;8.90;;;31.00;56.60;;;;;;5068791;28;20040;-80
2021/06/09 10:12:17;;;;;;;12.35;9.52;;;31.10;56.80;;;;;;5054188;28;20033;-81
2021/06/09 10:14:49;;;;;;;9.85;8.85;;;30.90;56.80;;;;;;5069913;28;20028;-80
2021/06/09 10:17:19;;;;;;;10.95;8.77;;;30.90;57.70;;;;;;5072801;28;20032;-81
2021/06/09 10:19:48;;;;;;;10.18;8.38;;;31.30;56.30;;;;;;5065803;28;20435;-80
2021/06/09 10:22:36;;;;;;;10.38;8.10;;;31.70;55.00;;;;;;5076959;28;20048;-80
2021/06/09 10:25:08;;;;;;;10.65;9.02;;;31.80;54.70;;;;;;5066118;28;20048;-80
2021/06/09 10:27:48;;;;;;;10.85;8.23;;;30.60;55.20;;;;;;5092322;28;20515;-79
2021/06/09 10:30:17;;;;;;;11.30;10.27;;;30.60;56.90;;;;;;5076331;28;20032;-80
2021/06/09 10:32:49;;;;;;;13.15;10.52;;;31.10;54.30;;;;;;5069066;28;20033;-80
2021/06/09 10:35:17;;;;;;;11.70;9.00;;;30.20;55.90;;;;;;5087554;28;20035;-80
2021/06/09 10:37:45;;;;;;;12.85;9.30;;;31.10;55.00;;;;;;5091316;28;20017;-80
2021/06/09 10:40:14;;;;;;;13.70;9.95;;;31.50;54.40;;;;;;5079009;28;20014;-80
2021/06/09 10:42:40;;;;;;;13.07;10.15;;;31.90;54.00;;;;;;5084381;28;20017;-79
2021/06/09 10:45:07;;;;;;;12.32;9.50;;;31.40;54.00;;;;;;5089769;28;20328;-80
2021/06/09 10:47:34;;;;;;;10.50;9.43;;;32.00;53.00;;;;;;5076267;28;20150;-80
2021/06/09 10:50:01;;;;;;;21.25;9.93;;;31.70;53.20;;;;;;5077728;28;20028;-80
2021/06/09 10:52:27;;;;;;;9.23;8.27;;;32.60;52.60;;;;;;5064924;28;20040;-81
2021/06/09 10:54:56;;;;;;;11.57;9.32;;;33.30;52.30;;;;;;5070479;28;20484;-79
2021/06/09 10:57:23;;;;;;;10.80;9.70;;;32.60;51.80;;;;;;5077258;28;20027;-80
2021/06/09 10:59:48;;;;;;;10.07;9.13;;;29.70;56.00;;;;;;5076582;28;20017;-79
2021/06/09 11:02:21;;;;;;;10.40;9.30;;;30.40;56.60;;;;;;5076188;28;20233;-79
2021/06/09 11:04:50;;;;;;;10.98;9.80;;;32.00;53.60;;;;;;5055042;28;20029;-79
2021/06/09 11:07:52;;;;;;;15.80;13.02;;;32.70;52.80;;;;;;5065191;28;20020;-80
2021/06/09 11:10:40;;;;;;;13.55;11.88;;;32.70;51.10;;;;;;5075848;28;20047;-79
2021/06/09 11:13:07;;;;;;;14.88;12.35;;;32.10;51.40;;;;;;5075449;28;20028;-80
2021/06/09 11:15:34;;;;;;;12.95;11.73;;;31.50;51.90;;;;;;5077390;28;20493;-80
2021/06/09 11:18:22;;;;;;;16.38;13.10;;;31.60;52.50;;;;;;5076844;28;20020;-81
2021/06/09 11:20:50;;;;;;;12.45;11.27;;;31.20;53.00;;;;;;5076077;28;20025;-80
2021/06/09 11:23:31;;;;;;;10.93;9.48;;;30.10;55.00;;;;;;5076176;28;20028;-81
2021/06/09 11:25:58;;;;;;;14.32;11.70;;;30.10;56.10;;;;;;5075830;28;20396;-80
2021/06/09 11:28:26;;;;;;;11.70;10.55;;;29.20;56.50;;;;;;5075644;28;20028;-80
2021/06/09 11:31:04;;;;;;;13.57;11.05;;;29.30;56.50;;;;;;5076520;28;20040;-80
2021/06/09 11:33:29;;;;;;;12.82;11.35;;;30.00;55.60;;;;;;5076660;28;20028;-80
2021/06/09 11:35:58;;;;;;;10.88;9.73;;;30.90;54.00;;;;;;5074977;28;20400;-80
2021/06/09 11:38:29;;;;;;;12.27;10.73;;;30.80;54.30;;;;;;5074534;28;20405;-80
2021/06/09 11:41:05;;;;;;;11.98;10.07;;;30.80;54.60;;;;;;5074360;28;20036;-79
2021/06/09 11:43:39;;;;;;;10.73;9.73;;;31.80;52.80;;;;;;5075429;28;20024;-80
2021/06/09 11:46:14;;;;;;;9.98;8.98;;;32.60;50.80;;;;;;5068869;28;20496;-80
2021/06/09 11:48:40;;;;;;;9.27;8.38;;;33.10;49.80;;;;;;5053841;28;20028;-80
2021/06/09 11:51:16;;;;;;;10.60;9.60;;;32.80;51.30;;;;;;5053880;28;20029;-80
2021/06/09 11:53:44;;;;;;;10.15;8.82;;;31.10;52.70;;;;;;5055610;28;20496;-79
2021/06/09 11:56:22;;;;;;;9.75;8.75;;;31.40;53.50;;;;;;5070796;28;20033;-80
2021/06/09 11:58:52;;;;;;;10.27;9.15;;;31.80;52.80;;;;;;5055698;28;20031;-80
2021/06/09 12:01:20;;;;;;;10.82;9.80;;;32.60;50.00;;;;;;5055520;28;20017;-80
2021/06/09 12:04:15;;;;;;;10.32;7.78;;;31.20;50.30;;;;;;5054575;28;20465;-78
2021/06/09 12:06:58;;;;;;;6.55;5.90;;;30.40;51.20;;;;;;5070041;28;20060;-79
2021/06/09 12:09:32;;;;;;;7.22;6.13;;;31.90;49.80;;;;;;5073824;28;20086;-80
2021/06/09 12:12:01;;;;;;;10.02;7.25;;;32.50;49.50;;;;;;5073499;28;20029;-79
2021/06/09 12:14:30;;;;;;;9.10;6.35;;;33.20;46.80;;;;;;5073646;28;20753;-80
2021/06/09 12:17:11;;;;;;;7.35;6.35;;;34.40;45.90;;;;;;5073804;28;20115;-80
2021/06/09 12:19:39;;;;;;;10.07;7.35;;;34.60;46.20;;;;;;5073589;28;20480;-80
2021/06/09 12:22:08;;;;;;;6.82;6.25;;;32.50;47.60;;;;;;5075593;28;20024;-80
2021/06/09 12:24:35;;;;;;;9.63;7.10;;;30.70;49.40;;;;;;5075862;28;20636;-79
2021/06/09 12:27:05;;;;;;;8.93;6.90;;;30.50;50.50;;;;;;5075829;28;20679;-80
2021/06/09 12:29:43;;;;;;;7.65;6.85;;;32.10;51.40;;;;;;5073995;28;20023;-80
2021/06/09 12:32:20;;;;;;;7.95;7.13;;;32.20;49.40;;;;;;5076921;28;20052;-80
2021/06/09 12:34:58;;;;;;;9.50;6.90;;;31.80;50.10;;;;;;5074433;28;20029;-79
2021/06/09 12:37:25;;;;;;;6.32;5.65;;;30.70;50.90;;;;;;5073579;28;20031;-79
2021/06/09 12:40:33;;;;;;;6.50;5.80;;;31.50;50.40;;;;;;5073746;28;20029;-80
2021/06/09 12:43:08;;;;;;;4.78;4.22;;;32.40;48.10;;;;;;5066613;28;20123;-85
2021/06/09 12:45:40;;;;;;;5.32;4.75;;;33.40;45.60;;;;;;5073220;28;20033;-89
2021/06/09 12:48:12;;;;;;;5.57;4.30;;;34.00;44.00;;;;;;5073557;28;20498;-89
2021/06/09 12:50:41;;;;;;;9.25;4.15;;;34.60;42.40;;;;;;5073399;28;20021;-89
2021/06/09 12:53:12;;;;;;;5.53;3.20;;;34.40;42.50;;;;;;5073558;28;20059;-89